EETN/TLL METAR and TAF weather

Enter ICAO airport designator
Station Type Date Time Source
EETN METAR 2020/04/06 17:20 UTC NOAA

EETN 061720Z 21004KT CAVOK 10/M01 Q1028 NOSIG


Station Type Date Time Source
EETN Decoded METAR 2020/04/06 17:20 UTC NOAA

Tallinn, Estonia (EETN) 59-24N 024-49E 34M
Apr 06, 2020 - 01:20 PM EDT / 2020.04.06 1720 UTC
Wind: from the SSW (210 degrees) at 5 MPH (4 KT):0
Visibility: greater than 7 mile(s):0
Temperature: 50 F (10 C)
Dew Point: 30 F (-1 C)
Relative Humidity: 46%
Pressure (altimeter): 30.36 in. Hg (1028 hPa)
ob: EETN 061720Z 21004KT CAVOK 10/M01 Q1028 NOSIG
cycle: 17

Station Type Date Time Source
EETN TAF 2020/04/06 18:03 UTC NOAA

TAF TAF EETN 061700Z 0618/0718 18007KT CAVOK
BECMG 0707/0709 19015G25KT
BECMG 0712/0714 26015G25KT SCT020CB
TEMPO 0714/0718 3000 SHRA BKN010 SCT015CB

Example: see airport list